PDX weather

Portland International Airport
Portland, Oregon, United States

Public forecast

Using degrees Fahrenheit for public forecast. Weather courtesy of forecast.io.

Current aviation weather report (METAR) for Portland International Airport

Retrieved 2020/07/02 07:53 UTC (43 minutes ago):

KPDX 020753Z 00000KT 10SM BKN027 OVC049 15/10 A3003 RMK AO2 SLP168 T01500100 401890139

Aviation forecast (TAF) for Portland International Airport

Retrieved 2020/07/02 06:36 UTC (2 hours ago):

TAF KPDX 020535Z 0206/0306 28004KT P6SM FEW040 OVC060 FM021200 29004KT P6SM SCT022 OVC035 FM021900 26005KT P6SM BKN035 FM022000 26005KT P6SM SCT040 FM030400 33006KT P6SM BKN100